sensor_id;sensor_type;location;lat;lon;timestamp;temperature;humidity
25154;DHT22;47555;51.038;6.280;2023-03-14T00:01:16;11.90;88.70
25154;DHT22;47555;51.038;6.280;2023-03-14T00:03:42;11.90;92.20
25154;DHT22;47555;51.038;6.280;2023-03-14T00:06:09;11.80;94.00
25154;DHT22;47555;51.038;6.280;2023-03-14T00:08:35;11.60;94.70
25154;DHT22;47555;51.038;6.280;2023-03-14T00:11:09;11.60;97.70
25154;DHT22;47555;51.038;6.280;2023-03-14T00:13:35;11.40;99.40
25154;DHT22;47555;51.038;6.280;2023-03-14T00:16:09;11.10;98.10
25154;DHT22;47555;51.038;6.280;2023-03-14T00:18:35;10.90;99.00
25154;DHT22;47555;51.038;6.280;2023-03-14T00:21:02;10.60;99.00
25154;DHT22;47555;51.038;6.280;2023-03-14T00:23:29;10.30;99.90
25154;DHT22;47555;51.038;6.280;2023-03-14T00:26:07;10.00;99.80
25154;DHT22;47555;51.038;6.280;2023-03-14T00:28:33;9.80;99.90
25154;DHT22;47555;51.038;6.280;2023-03-14T00:31:01;9.60;99.90
25154;DHT22;47555;51.038;6.280;2023-03-14T00:33:27;9.50;99.90
25154;DHT22;47555;51.038;6.280;2023-03-14T00:36:00;9.40;99.90
25154;DHT22;47555;51.038;6.280;2023-03-14T00:38:27;9.30;99.90
25154;DHT22;47555;51.038;6.280;2023-03-14T00:40:53;9.30;99.90
25154;DHT22;47555;51.038;6.280;2023-03-14T00:43:20;9.20;99.90
25154;DHT22;47555;51.038;6.280;2023-03-14T00:45:50;9.20;99.90
25154;DHT22;47555;51.038;6.280;2023-03-14T00:48:17;9.30;99.90
25154;DHT22;47555;51.038;6.280;2023-03-14T00:50:43;9.30;99.90
25154;DHT22;47555;51.038;6.280;2023-03-14T00:53:08;9.30;99.90
25154;DHT22;47555;51.038;6.280;2023-03-14T00:55:41;9.40;99.90
25154;DHT22;47555;51.038;6.280;2023-03-14T00:58:08;9.40;99.90
25154;DHT22;47555;51.038;6.280;2023-03-14T01:00:34;9.40;99.90
25154;DHT22;47555;51.038;6.280;2023-03-14T01:03:00;9.40;99.90
25154;DHT22;47555;51.038;6.280;2023-03-14T01:05:25;9.40;99.90
25154;DHT22;47555;51.038;6.280;2023-03-14T01:07:51;9.50;99.90
25154;DHT22;47555;51.038;6.280;2023-03-14T01:10:17;9.50;99.90
25154;DHT22;47555;51.038;6.280;2023-03-14T01:12:42;9.60;99.90
25154;DHT22;47555;51.038;6.280;2023-03-14T01:15:08;9.60;99.90
25154;DHT22;47555;51.038;6.280;2023-03-14T01:17:34;9.60;99.90
25154;DHT22;47555;51.038;6.280;2023-03-14T01:20:00;9.60;99.90
25154;DHT22;47555;51.038;6.280;2023-03-14T01:22:26;9.60;99.90
25154;DHT22;47555;51.038;6.280;2023-03-14T01:24:52;9.70;99.90
25154;DHT22;47555;51.038;6.280;2023-03-14T01:27:17;9.70;99.90
25154;DHT22;47555;51.038;6.280;2023-03-14T01:29:43;9.70;99.90
25154;DHT22;47555;51.038;6.280;2023-03-14T01:32:12;9.70;99.90
25154;DHT22;47555;51.038;6.280;2023-03-14T01:34:38;9.70;99.90
25154;DHT22;47555;51.038;6.280;2023-03-14T01:37:03;9.70;99.90
25154;DHT22;47555;51.038;6.280;2023-03-14T01:39:29;9.70;99.90
25154;DHT22;47555;51.038;6.280;2023-03-14T01:41:55;9.70;99.90
25154;DHT22;47555;51.038;6.280;2023-03-14T01:44:20;9.70;99.90
25154;DHT22;47555;51.038;6.280;2023-03-14T01:46:46;9.60;99.90
25154;DHT22;47555;51.038;6.280;2023-03-14T01:49:29;9.70;99.90
25154;DHT22;47555;51.038;6.280;2023-03-14T01:52:02;9.60;99.90
25154;DHT22;47555;51.038;6.280;2023-03-14T01:54:42;9.60;99.90
25154;DHT22;47555;51.038;6.280;2023-03-14T01:57:20;9.60;99.90
25154;DHT22;47555;51.038;6.280;2023-03-14T02:00:00;9.60;99.90
25154;DHT22;47555;51.038;6.280;2023-03-14T02:02:26;9.60;99.90
25154;DHT22;47555;51.038;6.280;2023-03-14T02:04:54;9.60;99.90
25154;DHT22;47555;51.038;6.280;2023-03-14T02:07:30;9.60;99.90
25154;DHT22;47555;51.038;6.280;2023-03-14T02:09:59;9.60;99.90
25154;DHT22;47555;51.038;6.280;2023-03-14T02:12:27;9.60;99.90
25154;DHT22;47555;51.038;6.280;2023-03-14T02:14:53;9.60;99.90
25154;DHT22;47555;51.038;6.280;2023-03-14T02:17:19;9.60;99.90
25154;DHT22;47555;51.038;6.280;2023-03-14T02:20:14;9.60;99.90
25154;DHT22;47555;51.038;6.280;2023-03-14T02:22:44;9.60;99.90
25154;DHT22;47555;51.038;6.280;2023-03-14T02:25:46;9.70;99.90
25154;DHT22;47555;51.038;6.280;2023-03-14T02:28:13;9.70;99.90
25154;DHT22;47555;51.038;6.280;2023-03-14T02:30:39;9.50;99.90
25154;DHT22;47555;51.038;6.280;2023-03-14T02:35:42;9.80;99.90
25154;DHT22;47555;51.038;6.280;2023-03-14T02:40:52;9.80;99.90
25154;DHT22;47555;51.038;6.280;2023-03-14T02:43:18;9.80;99.90
25154;DHT22;47555;51.038;6.280;2023-03-14T02:45:46;9.80;99.90
25154;DHT22;47555;51.038;6.280;2023-03-14T02:48:16;9.80;99.90
25154;DHT22;47555;51.038;6.280;2023-03-14T02:50:44;9.80;99.90
25154;DHT22;47555;51.038;6.280;2023-03-14T02:53:13;9.90;99.90
25154;DHT22;47555;51.038;6.280;2023-03-14T02:55:39;9.90;99.90
25154;DHT22;47555;51.038;6.280;2023-03-14T02:58:04;9.90;99.90
25154;DHT22;47555;51.038;6.280;2023-03-14T03:00:30;9.90;99.90
25154;DHT22;47555;51.038;6.280;2023-03-14T03:02:56;9.90;99.90
25154;DHT22;47555;51.038;6.280;2023-03-14T03:05:21;9.90;99.90
25154;DHT22;47555;51.038;6.280;2023-03-14T03:07:47;9.80;99.90
25154;DHT22;47555;51.038;6.280;2023-03-14T03:10:12;9.80;99.90
25154;DHT22;47555;51.038;6.280;2023-03-14T03:12:38;9.80;99.90
25154;DHT22;47555;51.038;6.280;2023-03-14T03:15:04;9.80;99.90
25154;DHT22;47555;51.038;6.280;2023-03-14T03:17:29;9.70;99.90
25154;DHT22;47555;51.038;6.280;2023-03-14T03:19:55;9.70;99.90
25154;DHT22;47555;51.038;6.280;2023-03-14T03:22:20;9.60;99.90
25154;DHT22;47555;51.038;6.280;2023-03-14T03:24:46;9.60;99.90
25154;DHT22;47555;51.038;6.280;2023-03-14T03:27:11;9.60;99.90
25154;DHT22;47555;51.038;6.280;2023-03-14T03:29:37;9.60;99.90
25154;DHT22;47555;51.038;6.280;2023-03-14T03:32:02;9.60;99.90
25154;DHT22;47555;51.038;6.280;2023-03-14T03:34:28;9.60;99.90
25154;DHT22;47555;51.038;6.280;2023-03-14T03:36:56;9.60;99.90
25154;DHT22;47555;51.038;6.280;2023-03-14T03:39:22;9.50;99.90
25154;DHT22;47555;51.038;6.280;2023-03-14T03:41:47;9.50;99.90
25154;DHT22;47555;51.038;6.280;2023-03-14T03:44:13;9.50;99.90
25154;DHT22;47555;51.038;6.280;2023-03-14T03:46:38;9.60;99.90
25154;DHT22;47555;51.038;6.280;2023-03-14T03:49:04;9.50;99.90
25154;DHT22;47555;51.038;6.280;2023-03-14T03:51:29;9.50;99.90
25154;DHT22;47555;51.038;6.280;2023-03-14T03:53:56;9.50;99.90
25154;DHT22;47555;51.038;6.280;2023-03-14T03:56:22;9.50;99.90
25154;DHT22;47555;51.038;6.280;2023-03-14T03:58:47;9.50;99.90
25154;DHT22;47555;51.038;6.280;2023-03-14T04:01:13;9.50;99.90
25154;DHT22;47555;51.038;6.280;2023-03-14T04:03:39;9.30;99.90
25154;DHT22;47555;51.038;6.280;2023-03-14T04:06:07;9.60;99.90
25154;DHT22;47555;51.038;6.280;2023-03-14T04:08:33;9.60;99.90
25154;DHT22;47555;51.038;6.280;2023-03-14T04:11:00;9.50;99.90
25154;DHT22;47555;51.038;6.280;2023-03-14T04:13:27;9.50;99.90
25154;DHT22;47555;51.038;6.280;2023-03-14T04:15:54;9.60;99.90
25154;DHT22;47555;51.038;6.280;2023-03-14T04:18:20;9.60;99.90
25154;DHT22;47555;51.038;6.280;2023-03-14T04:20:51;9.50;99.90
25154;DHT22;47555;51.038;6.280;2023-03-14T04:23:16;9.50;99.90
25154;DHT22;47555;51.038;6.280;2023-03-14T04:25:42;9.50;99.90
25154;DHT22;47555;51.038;6.280;2023-03-14T04:28:07;9.50;99.90
25154;DHT22;47555;51.038;6.280;2023-03-14T04:30:35;9.50;99.90
25154;DHT22;47555;51.038;6.280;2023-03-14T04:33:01;9.60;99.90
25154;DHT22;47555;51.038;6.280;2023-03-14T04:35:27;9.50;99.90
25154;DHT22;47555;51.038;6.280;2023-03-14T04:37:52;9.50;99.90
25154;DHT22;47555;51.038;6.280;2023-03-14T04:40:18;9.50;99.90
25154;DHT22;47555;51.038;6.280;2023-03-14T04:42:44;9.50;99.90
25154;DHT22;47555;51.038;6.280;2023-03-14T04:45:09;9.50;99.90
25154;DHT22;47555;51.038;6.280;2023-03-14T04:47:35;9.60;99.90
25154;DHT22;47555;51.038;6.280;2023-03-14T04:50:01;9.60;99.90
25154;DHT22;47555;51.038;6.280;2023-03-14T04:52:26;9.50;99.90
25154;DHT22;47555;51.038;6.280;2023-03-14T04:54:52;9.60;99.90
25154;DHT22;47555;51.038;6.280;2023-03-14T04:57:18;9.50;99.90
25154;DHT22;47555;51.038;6.280;2023-03-14T04:59:43;9.60;99.90
25154;DHT22;47555;51.038;6.280;2023-03-14T05:02:09;9.50;99.90
25154;DHT22;47555;51.038;6.280;2023-03-14T05:04:35;9.60;99.90
25154;DHT22;47555;51.038;6.280;2023-03-14T05:07:00;9.60;99.90
25154;DHT22;47555;51.038;6.280;2023-03-14T05:09:26;9.60;99.90
25154;DHT22;47555;51.038;6.280;2023-03-14T05:11:52;9.60;99.90
25154;DHT22;47555;51.038;6.280;2023-03-14T05:14:17;9.60;99.90
25154;DHT22;47555;51.038;6.280;2023-03-14T05:16:43;9.60;99.90
25154;DHT22;47555;51.038;6.280;2023-03-14T05:19:10;9.60;99.90
25154;DHT22;47555;51.038;6.280;2023-03-14T05:21:36;9.70;99.90
25154;DHT22;47555;51.038;6.280;2023-03-14T05:24:01;9.50;99.90
25154;DHT22;47555;51.038;6.280;2023-03-14T05:26:27;9.50;99.90
25154;DHT22;47555;51.038;6.280;2023-03-14T05:28:52;9.50;99.90
25154;DHT22;47555;51.038;6.280;2023-03-14T05:31:18;9.50;99.90
25154;DHT22;47555;51.038;6.280;2023-03-14T05:33:44;9.40;99.90
25154;DHT22;47555;51.038;6.280;2023-03-14T05:36:09;9.40;99.90
25154;DHT22;47555;51.038;6.280;2023-03-14T05:38:35;9.50;99.90
25154;DHT22;47555;51.038;6.280;2023-03-14T05:41:00;9.40;99.90
25154;DHT22;47555;51.038;6.280;2023-03-14T05:43:26;9.50;99.90
25154;DHT22;47555;51.038;6.280;2023-03-14T05:45:51;9.40;99.90
25154;DHT22;47555;51.038;6.280;2023-03-14T05:48:17;9.40;99.90
25154;DHT22;47555;51.038;6.280;2023-03-14T05:50:43;9.40;99.90
25154;DHT22;47555;51.038;6.280;2023-03-14T05:53:09;9.40;99.90
25154;DHT22;47555;51.038;6.280;2023-03-14T05:55:34;9.50;99.90
25154;DHT22;47555;51.038;6.280;2023-03-14T05:58:00;9.40;99.90
25154;DHT22;47555;51.038;6.280;2023-03-14T06:00:25;9.40;99.90
25154;DHT22;47555;51.038;6.280;2023-03-14T06:02:51;9.40;99.90
25154;DHT22;47555;51.038;6.280;2023-03-14T06:05:17;9.60;99.90
25154;DHT22;47555;51.038;6.280;2023-03-14T06:07:42;9.50;99.90
25154;DHT22;47555;51.038;6.280;2023-03-14T06:10:08;9.50;99.90
25154;DHT22;47555;51.038;6.280;2023-03-14T06:12:34;9.50;99.90
25154;DHT22;47555;51.038;6.280;2023-03-14T06:15:00;9.50;99.90
25154;DHT22;47555;51.038;6.280;2023-03-14T06:17:25;9.50;99.90
25154;DHT22;47555;51.038;6.280;2023-03-14T06:19:51;9.60;99.90
25154;DHT22;47555;51.038;6.280;2023-03-14T06:22:16;9.60;99.90
25154;DHT22;47555;51.038;6.280;2023-03-14T06:24:42;9.60;99.90
25154;DHT22;47555;51.038;6.280;2023-03-14T06:27:07;9.70;99.90
25154;DHT22;47555;51.038;6.280;2023-03-14T06:29:33;9.70;99.90
25154;DHT22;47555;51.038;6.280;2023-03-14T06:31:58;9.70;99.90
25154;DHT22;47555;51.038;6.280;2023-03-14T06:34:24;9.80;99.90
25154;DHT22;47555;51.038;6.280;2023-03-14T06:36:49;9.80;99.90
25154;DHT22;47555;51.038;6.280;2023-03-14T06:39:15;9.80;99.90
25154;DHT22;47555;51.038;6.280;2023-03-14T06:41:40;9.80;99.90
25154;DHT22;47555;51.038;6.280;2023-03-14T06:44:06;9.80;99.90
25154;DHT22;47555;51.038;6.280;2023-03-14T06:46:31;9.80;99.90
25154;DHT22;47555;51.038;6.280;2023-03-14T06:48:57;9.80;99.90
25154;DHT22;47555;51.038;6.280;2023-03-14T06:51:23;9.90;99.90
25154;DHT22;47555;51.038;6.280;2023-03-14T06:53:48;9.90;99.90
25154;DHT22;47555;51.038;6.280;2023-03-14T06:56:14;9.90;99.90
25154;DHT22;47555;51.038;6.280;2023-03-14T06:58:39;9.90;99.90
25154;DHT22;47555;51.038;6.280;2023-03-14T07:01:05;10.00;99.90
25154;DHT22;47555;51.038;6.280;2023-03-14T07:03:32;10.10;99.90
25154;DHT22;47555;51.038;6.280;2023-03-14T07:05:57;10.20;99.90
25154;DHT22;47555;51.038;6.280;2023-03-14T07:08:23;10.20;99.90
25154;DHT22;47555;51.038;6.280;2023-03-14T07:10:49;10.20;99.90
25154;DHT22;47555;51.038;6.280;2023-03-14T07:13:14;10.20;99.90
25154;DHT22;47555;51.038;6.280;2023-03-14T07:15:40;10.30;99.90
25154;DHT22;47555;51.038;6.280;2023-03-14T07:18:05;10.30;99.90
25154;DHT22;47555;51.038;6.280;2023-03-14T07:20:31;10.30;99.90
25154;DHT22;47555;51.038;6.280;2023-03-14T07:22:57;10.30;99.90
25154;DHT22;47555;51.038;6.280;2023-03-14T07:25:25;10.30;99.90
25154;DHT22;47555;51.038;6.280;2023-03-14T07:27:50;10.30;99.90
25154;DHT22;47555;51.038;6.280;2023-03-14T07:30:16;10.30;99.90
25154;DHT22;47555;51.038;6.280;2023-03-14T07:32:42;10.30;99.90
25154;DHT22;47555;51.038;6.280;2023-03-14T07:35:08;10.40;99.90
25154;DHT22;47555;51.038;6.280;2023-03-14T07:37:33;10.40;99.90
25154;DHT22;47555;51.038;6.280;2023-03-14T07:39:59;10.40;99.90
25154;DHT22;47555;51.038;6.280;2023-03-14T07:42:24;10.50;99.90
25154;DHT22;47555;51.038;6.280;2023-03-14T07:44:50;10.50;99.90
25154;DHT22;47555;51.038;6.280;2023-03-14T07:47:15;10.60;99.90
25154;DHT22;47555;51.038;6.280;2023-03-14T07:49:41;10.70;99.90
25154;DHT22;47555;51.038;6.280;2023-03-14T07:52:06;10.80;99.90
25154;DHT22;47555;51.038;6.280;2023-03-14T07:54:32;10.90;99.90
25154;DHT22;47555;51.038;6.280;2023-03-14T07:56:57;10.90;99.90
25154;DHT22;47555;51.038;6.280;2023-03-14T07:59:26;11.00;99.90
25154;DHT22;47555;51.038;6.280;2023-03-14T08:01:52;11.00;99.90
25154;DHT22;47555;51.038;6.280;2023-03-14T08:04:17;11.00;99.90
25154;DHT22;47555;51.038;6.280;2023-03-14T08:06:42;11.00;99.90
25154;DHT22;47555;51.038;6.280;2023-03-14T08:09:08;11.00;99.90
25154;DHT22;47555;51.038;6.280;2023-03-14T08:11:34;11.00;99.90
25154;DHT22;47555;51.038;6.280;2023-03-14T08:13:59;11.10;99.90
25154;DHT22;47555;51.038;6.280;2023-03-14T08:16:25;11.20;99.90
25154;DHT22;47555;51.038;6.280;2023-03-14T08:18:50;11.30;99.90
25154;DHT22;47555;51.038;6.280;2023-03-14T08:21:16;11.20;99.90
25154;DHT22;47555;51.038;6.280;2023-03-14T08:23:41;11.20;99.90
25154;DHT22;47555;51.038;6.280;2023-03-14T08:26:07;11.20;99.90
25154;DHT22;47555;51.038;6.280;2023-03-14T08:28:33;11.10;99.90
25154;DHT22;47555;51.038;6.280;2023-03-14T08:30:59;11.00;99.90
25154;DHT22;47555;51.038;6.280;2023-03-14T08:33:26;11.00;99.90
25154;DHT22;47555;51.038;6.280;2023-03-14T08:35:56;10.90;99.90
25154;DHT22;47555;51.038;6.280;2023-03-14T08:38:22;10.90;99.90
25154;DHT22;47555;51.038;6.280;2023-03-14T08:40:48;10.90;99.90
25154;DHT22;47555;51.038;6.280;2023-03-14T08:43:15;10.80;99.90
25154;DHT22;47555;51.038;6.280;2023-03-14T08:45:40;10.80;99.90
25154;DHT22;47555;51.038;6.280;2023-03-14T08:48:06;10.80;99.90
25154;DHT22;47555;51.038;6.280;2023-03-14T08:50:31;10.70;99.90
25154;DHT22;47555;51.038;6.280;2023-03-14T08:52:57;10.60;99.90
25154;DHT22;47555;51.038;6.280;2023-03-14T08:55:26;10.30;99.90
25154;DHT22;47555;51.038;6.280;2023-03-14T08:57:54;10.00;99.90
25154;DHT22;47555;51.038;6.280;2023-03-14T09:00:20;9.80;99.90
25154;DHT22;47555;51.038;6.280;2023-03-14T09:02:46;9.50;99.90
25154;DHT22;47555;51.038;6.280;2023-03-14T09:05:12;9.30;99.90
25154;DHT22;47555;51.038;6.280;2023-03-14T09:07:39;9.10;99.90
25154;DHT22;47555;51.038;6.280;2023-03-14T09:10:06;9.00;99.90
25154;DHT22;47555;51.038;6.280;2023-03-14T09:12:32;8.90;99.90
25154;DHT22;47555;51.038;6.280;2023-03-14T09:14:57;8.80;99.90
25154;DHT22;47555;51.038;6.280;2023-03-14T09:17:23;8.70;99.90
25154;DHT22;47555;51.038;6.280;2023-03-14T09:19:48;8.60;99.90
25154;DHT22;47555;51.038;6.280;2023-03-14T09:22:14;8.50;99.90
25154;DHT22;47555;51.038;6.280;2023-03-14T09:24:40;8.50;99.90
25154;DHT22;47555;51.038;6.280;2023-03-14T09:27:06;8.50;99.90
25154;DHT22;47555;51.038;6.280;2023-03-14T09:29:33;8.50;99.90
25154;DHT22;47555;51.038;6.280;2023-03-14T09:31:59;8.50;99.90
25154;DHT22;47555;51.038;6.280;2023-03-14T09:34:25;8.50;99.90
25154;DHT22;47555;51.038;6.280;2023-03-14T09:36:51;8.40;99.90
25154;DHT22;47555;51.038;6.280;2023-03-14T09:39:16;8.40;99.90
25154;DHT22;47555;51.038;6.280;2023-03-14T09:41:47;8.40;99.90
25154;DHT22;47555;51.038;6.280;2023-03-14T09:44:23;8.30;99.90
25154;DHT22;47555;51.038;6.280;2023-03-14T09:46:52;8.20;99.90
25154;DHT22;47555;51.038;6.280;2023-03-14T09:49:44;8.30;99.90
25154;DHT22;47555;51.038;6.280;2023-03-14T09:52:22;8.20;99.90
25154;DHT22;47555;51.038;6.280;2023-03-14T09:54:54;8.20;99.90
25154;DHT22;47555;51.038;6.280;2023-03-14T09:57:25;8.10;99.90
25154;DHT22;47555;51.038;6.280;2023-03-14T09:59:53;8.10;99.90
25154;DHT22;47555;51.038;6.280;2023-03-14T10:02:25;8.20;99.90
25154;DHT22;47555;51.038;6.280;2023-03-14T10:04:52;8.10;99.90
25154;DHT22;47555;51.038;6.280;2023-03-14T10:07:27;8.10;99.90
25154;DHT22;47555;51.038;6.280;2023-03-14T10:09:53;8.20;99.90
25154;DHT22;47555;51.038;6.280;2023-03-14T10:12:19;8.10;99.90
25154;DHT22;47555;51.038;6.280;2023-03-14T10:14:51;8.00;99.90
25154;DHT22;47555;51.038;6.280;2023-03-14T10:17:17;7.90;99.90
25154;DHT22;47555;51.038;6.280;2023-03-14T10:19:59;7.90;99.90
25154;DHT22;47555;51.038;6.280;2023-03-14T10:22:30;8.00;99.90
25154;DHT22;47555;51.038;6.280;2023-03-14T10:25:02;8.00;99.90
25154;DHT22;47555;51.038;6.280;2023-03-14T10:27:33;8.00;99.90
25154;DHT22;47555;51.038;6.280;2023-03-14T10:30:03;8.10;99.90
25154;DHT22;47555;51.038;6.280;2023-03-14T10:32:34;8.10;99.90
25154;DHT22;47555;51.038;6.280;2023-03-14T10:35:18;8.10;99.90
25154;DHT22;47555;51.038;6.280;2023-03-14T10:40:19;7.70;99.90
25154;DHT22;47555;51.038;6.280;2023-03-14T10:42:46;7.90;99.90
25154;DHT22;47555;51.038;6.280;2023-03-14T10:45:42;7.90;99.90
25154;DHT22;47555;51.038;6.280;2023-03-14T10:48:18;7.90;99.90
25154;DHT22;47555;51.038;6.280;2023-03-14T10:51:11;8.00;99.90
25154;DHT22;47555;51.038;6.280;2023-03-14T10:53:48;8.20;99.90
25154;DHT22;47555;51.038;6.280;2023-03-14T10:56:19;8.30;99.90
25154;DHT22;47555;51.038;6.280;2023-03-14T10:58:47;8.40;99.90
25154;DHT22;47555;51.038;6.280;2023-03-14T11:01:32;8.50;99.90
25154;DHT22;47555;51.038;6.280;2023-03-14T11:04:25;8.50;99.90
25154;DHT22;47555;51.038;6.280;2023-03-14T11:15:37;8.30;99.90
25154;DHT22;47555;51.038;6.280;2023-03-14T11:23:56;7.20;99.90
25154;DHT22;47555;51.038;6.280;2023-03-14T11:27:06;7.10;99.90
25154;DHT22;47555;51.038;6.280;2023-03-14T11:32:12;7.50;99.90
25154;DHT22;47555;51.038;6.280;2023-03-14T11:34:51;7.50;99.90
25154;DHT22;47555;51.038;6.280;2023-03-14T11:37:32;7.50;99.90
25154;DHT22;47555;51.038;6.280;2023-03-14T11:40:06;7.50;99.90
25154;DHT22;47555;51.038;6.280;2023-03-14T11:42:33;7.40;99.90
25154;DHT22;47555;51.038;6.280;2023-03-14T11:45:00;7.40;99.90
25154;DHT22;47555;51.038;6.280;2023-03-14T11:47:30;7.40;99.90
25154;DHT22;47555;51.038;6.280;2023-03-14T11:50:04;7.50;99.90
25154;DHT22;47555;51.038;6.280;2023-03-14T11:52:37;7.50;99.90
25154;DHT22;47555;51.038;6.280;2023-03-14T11:57:44;7.50;99.90
25154;DHT22;47555;51.038;6.280;2023-03-14T12:00:17;7.60;99.90
25154;DHT22;47555;51.038;6.280;2023-03-14T12:10:43;7.40;99.90
25154;DHT22;47555;51.038;6.280;2023-03-14T12:13:12;7.40;99.90
25154;DHT22;47555;51.038;6.280;2023-03-14T12:15:41;7.30;98.80
25154;DHT22;47555;51.038;6.280;2023-03-14T12:18:32;7.30;99.90
25154;DHT22;47555;51.038;6.280;2023-03-14T12:21:04;7.30;99.90
25154;DHT22;47555;51.038;6.280;2023-03-14T12:23:37;7.40;99.50
25154;DHT22;47555;51.038;6.280;2023-03-14T12:28:43;7.60;96.80
25154;DHT22;47555;51.038;6.280;2023-03-14T12:39:31;7.80;90.50
25154;DHT22;47555;51.038;6.280;2023-03-14T12:42:36;7.80;88.70
25154;DHT22;47555;51.038;6.280;2023-03-14T12:44:50;7.80;90.50
25154;DHT22;47555;51.038;6.280;2023-03-14T12:49:52;7.70;88.40
25154;DHT22;47555;51.038;6.280;2023-03-14T12:52:29;7.70;89.10
25154;DHT22;47555;51.038;6.280;2023-03-14T12:55:10;7.80;85.80
25154;DHT22;47555;51.038;6.280;2023-03-14T13:00:40;7.90;86.90
25154;DHT22;47555;51.038;6.280;2023-03-14T13:03:20;7.90;85.00
25154;DHT22;47555;51.038;6.280;2023-03-14T13:05:56;7.90;84.50
25154;DHT22;47555;51.038;6.280;2023-03-14T13:08:52;7.70;85.20
25154;DHT22;47555;51.038;6.280;2023-03-14T13:11:23;7.50;86.60
25154;DHT22;47555;51.038;6.280;2023-03-14T13:13:59;7.10;87.50
25154;DHT22;47555;51.038;6.280;2023-03-14T13:16:24;6.90;91.10
25154;DHT22;47555;51.038;6.280;2023-03-14T13:19:02;6.80;91.50
25154;DHT22;47555;51.038;6.280;2023-03-14T13:21:34;6.70;91.60
25154;DHT22;47555;51.038;6.280;2023-03-14T13:24:03;6.60;92.80
25154;DHT22;47555;51.038;6.280;2023-03-14T13:26:39;6.60;91.90
25154;DHT22;47555;51.038;6.280;2023-03-14T13:29:28;6.60;91.50
25154;DHT22;47555;51.038;6.280;2023-03-14T13:31:56;6.60;92.70
25154;DHT22;47555;51.038;6.280;2023-03-14T13:34:29;6.50;94.00
25154;DHT22;47555;51.038;6.280;2023-03-14T13:36:55;6.50;95.40
25154;DHT22;47555;51.038;6.280;2023-03-14T13:39:26;6.50;96.20
25154;DHT22;47555;51.038;6.280;2023-03-14T13:41:54;6.50;95.90
25154;DHT22;47555;51.038;6.280;2023-03-14T13:44:38;6.50;97.30
25154;DHT22;47555;51.038;6.280;2023-03-14T13:47:09;6.60;96.90
25154;DHT22;47555;51.038;6.280;2023-03-14T13:49:37;6.60;97.60
25154;DHT22;47555;51.038;6.280;2023-03-14T13:52:19;6.70;97.70
25154;DHT22;47555;51.038;6.280;2023-03-14T13:54:46;6.80;95.20
25154;DHT22;47555;51.038;6.280;2023-03-14T13:57:11;6.80;97.00
25154;DHT22;47555;51.038;6.280;2023-03-14T13:59:37;6.80;97.10
25154;DHT22;47555;51.038;6.280;2023-03-14T14:02:13;6.80;94.80
25154;DHT22;47555;51.038;6.280;2023-03-14T14:04:38;6.90;96.20
25154;DHT22;47555;51.038;6.280;2023-03-14T14:07:10;7.00;97.00
25154;DHT22;47555;51.038;6.280;2023-03-14T14:09:52;7.00;95.60
25154;DHT22;47555;51.038;6.280;2023-03-14T14:12:29;7.10;96.60
25154;DHT22;47555;51.038;6.280;2023-03-14T14:17:35;7.20;96.30
25154;DHT22;47555;51.038;6.280;2023-03-14T14:20:04;7.30;96.60
25154;DHT22;47555;51.038;6.280;2023-03-14T14:22:31;7.30;95.50
25154;DHT22;47555;51.038;6.280;2023-03-14T14:24:57;7.30;94.50
25154;DHT22;47555;51.038;6.280;2023-03-14T14:27:35;7.30;94.70
25154;DHT22;47555;51.038;6.280;2023-03-14T14:30:25;7.40;95.80
25154;DHT22;47555;51.038;6.280;2023-03-14T14:32:50;7.40;96.00
25154;DHT22;47555;51.038;6.280;2023-03-14T14:35:31;7.40;94.90
25154;DHT22;47555;51.038;6.280;2023-03-14T14:37:57;7.40;93.20
25154;DHT22;47555;51.038;6.280;2023-03-14T14:40:25;7.40;92.80
25154;DHT22;47555;51.038;6.280;2023-03-14T14:42:51;7.40;91.50
25154;DHT22;47555;51.038;6.280;2023-03-14T14:45:24;7.40;91.20
25154;DHT22;47555;51.038;6.280;2023-03-14T14:48:04;7.40;90.90
25154;DHT22;47555;51.038;6.280;2023-03-14T14:50:34;7.40;91.60
25154;DHT22;47555;51.038;6.280;2023-03-14T14:53:23;7.50;90.20
25154;DHT22;47555;51.038;6.280;2023-03-14T14:55:54;7.50;90.80
25154;DHT22;47555;51.038;6.280;2023-03-14T15:00:56;7.60;91.70
25154;DHT22;47555;51.038;6.280;2023-03-14T15:03:24;7.60;89.70
25154;DHT22;47555;51.038;6.280;2023-03-14T15:05:51;7.70;89.30
25154;DHT22;47555;51.038;6.280;2023-03-14T15:08:16;7.70;90.60
25154;DHT22;47555;51.038;6.280;2023-03-14T15:10:42;7.70;88.90
25154;DHT22;47555;51.038;6.280;2023-03-14T15:13:07;7.70;90.10
25154;DHT22;47555;51.038;6.280;2023-03-14T15:15:33;7.70;89.90
25154;DHT22;47555;51.038;6.280;2023-03-14T15:17:59;7.60;89.50
25154;DHT22;47555;51.038;6.280;2023-03-14T15:20:25;7.80;88.30
25154;DHT22;47555;51.038;6.280;2023-03-14T15:22:51;7.80;86.00
25154;DHT22;47555;51.038;6.280;2023-03-14T15:25:17;7.80;86.80
25154;DHT22;47555;51.038;6.280;2023-03-14T15:27:42;7.80;88.70
25154;DHT22;47555;51.038;6.280;2023-03-14T15:30:13;7.80;88.30
25154;DHT22;47555;51.038;6.280;2023-03-14T15:32:39;7.80;87.60
25154;DHT22;47555;51.038;6.280;2023-03-14T15:35:05;7.80;78.60
25154;DHT22;47555;51.038;6.280;2023-03-14T15:37:31;7.70;57.90
25154;DHT22;47555;51.038;6.280;2023-03-14T15:39:56;7.70;56.20
25154;DHT22;47555;51.038;6.280;2023-03-14T15:42:25;7.60;52.40
25154;DHT22;47555;51.038;6.280;2023-03-14T15:44:51;7.60;51.90
25154;DHT22;47555;51.038;6.280;2023-03-14T15:47:16;7.60;44.50
25154;DHT22;47555;51.038;6.280;2023-03-14T15:49:42;7.60;46.80
25154;DHT22;47555;51.038;6.280;2023-03-14T15:52:08;7.60;44.50
25154;DHT22;47555;51.038;6.280;2023-03-14T15:54:34;7.50;41.80
25154;DHT22;47555;51.038;6.280;2023-03-14T15:57:00;7.50;42.00
25154;DHT22;47555;51.038;6.280;2023-03-14T15:59:26;7.50;42.30
25154;DHT22;47555;51.038;6.280;2023-03-14T16:01:51;7.50;43.30
25154;DHT22;47555;51.038;6.280;2023-03-14T16:04:17;7.50;41.20
25154;DHT22;47555;51.038;6.280;2023-03-14T16:06:43;7.40;43.20
25154;DHT22;47555;51.038;6.280;2023-03-14T16:09:10;7.40;39.90
25154;DHT22;47555;51.038;6.280;2023-03-14T16:11:36;7.40;40.70
25154;DHT22;47555;51.038;6.280;2023-03-14T16:14:02;7.30;40.30
25154;DHT22;47555;51.038;6.280;2023-03-14T16:16:27;7.30;42.70
25154;DHT22;47555;51.038;6.280;2023-03-14T16:18:53;7.30;41.10
25154;DHT22;47555;51.038;6.280;2023-03-14T16:21:19;7.30;43.10
25154;DHT22;47555;51.038;6.280;2023-03-14T16:23:45;7.20;41.40
25154;DHT22;47555;51.038;6.280;2023-03-14T16:26:14;7.20;41.50
25154;DHT22;47555;51.038;6.280;2023-03-14T16:28:40;7.20;42.00
25154;DHT22;47555;51.038;6.280;2023-03-14T16:31:09;7.10;42.80
25154;DHT22;47555;51.038;6.280;2023-03-14T16:33:37;7.10;43.30
25154;DHT22;47555;51.038;6.280;2023-03-14T16:36:04;7.00;46.30
25154;DHT22;47555;51.038;6.280;2023-03-14T16:38:36;7.00;43.10
25154;DHT22;47555;51.038;6.280;2023-03-14T16:41:13;6.90;44.30
25154;DHT22;47555;51.038;6.280;2023-03-14T16:43:39;6.90;47.90
25154;DHT22;47555;51.038;6.280;2023-03-14T16:46:07;6.80;48.40
25154;DHT22;47555;51.038;6.280;2023-03-14T16:48:35;6.80;48.90
25154;DHT22;47555;51.038;6.280;2023-03-14T16:51:01;6.70;49.10